Time;durP1;ratioP1;P1;durP2;ratioP2;P2;SDS_P1;SDS_P2;PMS_P1;PMS_P2;Temp;Humidity;BMP_temperature;BMP_pressure;BME280_temperature;BME280_humidity;BME280_pressure;Samples;Min_cycle;Max_cycle;Signal;HPM_P1;HPM_P2
2023/08/25 00:01:12;;;;;;;6.72;3.75;;;18.30;99.90;;;;;;7296480;32;20101;-56
2023/08/25 00:05:14;;;;;;;7.78;3.67;;;18.30;99.90;;;;;;7302047;32;20269;-56
2023/08/25 00:09:16;;;;;;;6.60;3.40;;;18.30;99.90;;;;;;7297438;32;20130;-56
2023/08/25 00:13:19;;;;;;;5.82;3.20;;;18.30;99.90;;;;;;7298126;32;20222;-56
2023/08/25 00:17:21;;;;;;;9.77;3.28;;;18.30;99.90;;;;;;7297319;32;20224;-56
2023/08/25 00:21:23;;;;;;;4.47;3.00;;;18.30;99.90;;;;;;7292004;32;20193;-56
2023/08/25 00:25:25;;;;;;;6.32;3.60;;;18.40;99.90;;;;;;7298067;32;20159;-57
2023/08/25 00:29:27;;;;;;;5.65;3.03;;;18.30;99.90;;;;;;7297902;32;20177;-57
2023/08/25 00:33:29;;;;;;;5.00;3.10;;;18.40;99.90;;;;;;7296443;32;20186;-56
2023/08/25 00:37:30;;;;;;;6.12;2.97;;;18.30;99.90;;;;;;7293785;32;20131;-56
2023/08/25 00:41:32;;;;;;;4.97;2.80;;;18.40;99.90;;;;;;7300547;32;20108;-57
2023/08/25 00:45:39;;;;;;;6.82;3.10;;;18.40;99.90;;;;;;7298739;32;20143;-57
2023/08/25 00:49:41;;;;;;;5.75;3.33;;;18.40;99.90;;;;;;7294087;32;20336;-56
2023/08/25 00:53:45;;;;;;;7.03;3.20;;;18.40;99.90;;;;;;7300277;32;20126;-56
2023/08/25 00:57:47;;;;;;;5.78;3.50;;;18.40;99.90;;;;;;7290930;32;20130;-56
2023/08/25 01:01:49;;;;;;;5.30;3.30;;;18.40;99.90;;;;;;7296223;32;20095;-56
2023/08/25 01:05:52;;;;;;;9.25;3.50;;;18.40;99.90;;;;;;7294967;32;20659;-56
2023/08/25 01:09:54;;;;;;;5.53;3.40;;;18.40;99.90;;;;;;7301688;32;20272;-56
2023/08/25 01:14:26;;;;;;;7.90;3.30;;;18.50;99.90;;;;;;7297455;32;20257;-57
2023/08/25 01:18:30;;;;;;;4.15;3.03;;;18.40;99.90;;;;;;7298313;32;20247;-57
2023/08/25 01:22:53;;;;;;;8.10;2.97;;;18.40;99.90;;;;;;7292630;32;20202;-57
2023/08/25 01:26:56;;;;;;;5.25;3.25;;;18.40;99.90;;;;;;7291132;32;20134;-57
2023/08/25 01:30:59;;;;;;;5.60;2.95;;;18.40;99.90;;;;;;7291916;32;20164;-55
2023/08/25 01:35:01;;;;;;;6.45;3.10;;;18.30;99.90;;;;;;7295132;32;20270;-56
2023/08/25 01:39:08;;;;;;;9.43;3.85;;;18.30;99.90;;;;;;7293911;32;20313;-58
2023/08/25 01:43:15;;;;;;;5.72;3.08;;;18.30;99.90;;;;;;7288385;32;20134;-56
2023/08/25 01:47:19;;;;;;;6.40;3.80;;;18.20;99.90;;;;;;7292254;32;20265;-56
2023/08/25 01:51:21;;;;;;;5.85;3.35;;;18.30;99.90;;;;;;7291240;32;20226;-56
2023/08/25 01:55:23;;;;;;;5.87;3.28;;;18.30;99.90;;;;;;7291852;32;20131;-56
2023/08/25 01:59:25;;;;;;;8.13;3.83;;;18.20;99.90;;;;;;7295398;32;20582;-56
2023/08/25 02:03:26;;;;;;;7.80;3.22;;;18.20;99.90;;;;;;7294934;32;20128;-58
2023/08/25 02:07:28;;;;;;;3.40;3.00;;;18.20;99.90;;;;;;7303144;32;20131;-56
2023/08/25 02:11:30;;;;;;;5.07;2.70;;;18.20;99.90;;;;;;7293636;32;20767;-56
2023/08/25 02:15:32;;;;;;;5.28;3.37;;;18.10;99.90;;;;;;7297283;32;20221;-56
2023/08/25 02:19:34;;;;;;;5.07;3.40;;;18.10;99.90;;;;;;7281665;32;20162;-56
2023/08/25 02:23:35;;;;;;;6.93;3.40;;;18.10;99.90;;;;;;7304175;32;20111;-57
2023/08/25 02:27:37;;;;;;;5.07;3.15;;;18.00;99.90;;;;;;7300987;32;20100;-57
2023/08/25 02:31:39;;;;;;;5.10;2.78;;;18.00;99.90;;;;;;7300326;32;20474;-56
2023/08/25 02:35:41;;;;;;;5.55;3.50;;;17.90;99.90;;;;;;7297711;32;20707;-56
2023/08/25 02:39:43;;;;;;;6.80;3.50;;;17.90;99.90;;;;;;7302108;32;20108;-56
2023/08/25 02:43:45;;;;;;;8.38;3.40;;;17.90;99.90;;;;;;7292829;32;20194;-56
2023/08/25 02:47:46;;;;;;;7.43;3.30;;;17.90;99.90;;;;;;7300063;32;20282;-57
2023/08/25 02:51:48;;;;;;;8.10;3.37;;;17.90;99.90;;;;;;7295134;32;20122;-56
2023/08/25 02:55:50;;;;;;;4.72;3.28;;;17.90;99.90;;;;;;7300277;32;20584;-56
2023/08/25 02:59:51;;;;;;;9.93;3.30;;;17.90;99.90;;;;;;7298688;32;20184;-56
2023/08/25 03:03:55;;;;;;;6.93;3.83;;;17.80;99.90;;;;;;7299702;32;20222;-56
2023/08/25 03:07:57;;;;;;;4.65;3.05;;;17.80;99.90;;;;;;7298685;32;20135;-57
2023/08/25 03:11:59;;;;;;;5.28;2.85;;;17.70;99.90;;;;;;7294330;32;20552;-56
2023/08/25 03:16:01;;;;;;;6.55;3.55;;;17.80;99.90;;;;;;7291142;32;20134;-56
2023/08/25 03:20:04;;;;;;;7.85;3.45;;;17.70;99.90;;;;;;7291943;32;20119;-56
2023/08/25 03:24:06;;;;;;;8.07;3.50;;;17.70;99.90;;;;;;7292034;32;20180;-56
2023/08/25 03:28:07;;;;;;;5.03;3.00;;;17.60;99.90;;;;;;7297623;32;20120;-55
2023/08/25 03:32:09;;;;;;;5.18;3.03;;;17.50;99.90;;;;;;7299443;32;20107;-58
2023/08/25 03:36:11;;;;;;;9.45;3.25;;;17.50;99.90;;;;;;7297544;32;20193;-57
2023/08/25 03:40:13;;;;;;;6.53;2.95;;;17.50;99.90;;;;;;7293148;32;20259;-56
2023/08/25 03:44:14;;;;;;;4.20;3.15;;;17.40;99.90;;;;;;7296266;32;20120;-57
2023/08/25 03:48:16;;;;;;;4.85;2.95;;;17.30;99.90;;;;;;7296243;32;20420;-57
2023/08/25 03:52:18;;;;;;;6.40;2.42;;;17.30;99.90;;;;;;7296971;32;20113;-56
2023/08/25 03:56:19;;;;;;;3.92;2.53;;;17.10;99.90;;;;;;7288654;32;20508;-56
2023/08/25 04:00:21;;;;;;;5.30;2.67;;;17.00;99.90;;;;;;7292913;32;20203;-56
2023/08/25 04:04:23;;;;;;;4.40;2.65;;;17.00;99.90;;;;;;7293895;32;20507;-56
2023/08/25 04:08:25;;;;;;;7.93;2.72;;;16.90;99.90;;;;;;7300309;32;20132;-56
2023/08/25 04:12:27;;;;;;;7.55;2.75;;;16.90;99.90;;;;;;7295025;32;20183;-56
2023/08/25 04:16:29;;;;;;;4.78;3.00;;;16.80;99.90;;;;;;7299741;32;20108;-57
2023/08/25 04:20:34;;;;;;;6.95;3.08;;;16.80;99.90;;;;;;7303957;32;20198;-56
2023/08/25 04:24:35;;;;;;;7.25;3.00;;;16.80;99.90;;;;;;7299719;32;20131;-56
2023/08/25 04:28:37;;;;;;;8.07;2.85;;;16.80;99.90;;;;;;7298142;32;20345;-56
2023/08/25 04:32:39;;;;;;;4.65;2.97;;;16.70;99.90;;;;;;7300899;32;20215;-57
2023/08/25 04:36:42;;;;;;;5.20;3.08;;;16.80;99.90;;;;;;7299663;32;20199;-56
2023/08/25 04:40:43;;;;;;;4.85;2.85;;;16.80;99.90;;;;;;7294929;32;20138;-56
2023/08/25 04:44:47;;;;;;;6.40;3.10;;;16.70;99.90;;;;;;7299040;32;20897;-58
2023/08/25 04:48:49;;;;;;;7.57;2.95;;;16.70;99.90;;;;;;7295459;32;20197;-57
2023/08/25 04:52:51;;;;;;;8.02;3.37;;;16.60;99.90;;;;;;7296063;32;20190;-57
2023/08/25 04:56:53;;;;;;;6.37;3.08;;;16.60;99.90;;;;;;7286019;32;22096;-57
2023/08/25 05:00:54;;;;;;;6.82;3.55;;;16.70;99.90;;;;;;7277613;32;20894;-56
2023/08/25 05:04:57;;;;;;;5.35;3.10;;;16.70;99.90;;;;;;7291266;32;20603;-56
2023/08/25 05:08:58;;;;;;;8.73;2.90;;;16.70;99.90;;;;;;7293013;32;20116;-56
2023/08/25 05:13:00;;;;;;;3.78;2.70;;;16.70;99.90;;;;;;7288425;32;20214;-57
2023/08/25 05:17:02;;;;;;;8.50;3.17;;;16.70;99.90;;;;;;7289650;32;20163;-56
2023/08/25 05:21:05;;;;;;;5.15;3.08;;;16.70;99.90;;;;;;7293237;32;20112;-56
2023/08/25 05:25:07;;;;;;;4.62;3.12;;;16.70;99.90;;;;;;7288543;32;20238;-56
2023/08/25 05:29:09;;;;;;;5.75;2.47;;;16.80;99.90;;;;;;7290098;32;20173;-56
2023/08/25 05:33:11;;;;;;;8.52;3.15;;;16.80;99.90;;;;;;7294304;32;20126;-57
2023/08/25 05:37:13;;;;;;;9.40;3.22;;;16.80;99.90;;;;;;7300061;32;20112;-57
2023/08/25 05:41:14;;;;;;;5.75;2.70;;;16.90;99.90;;;;;;7300427;32;20133;-57
2023/08/25 05:45:16;;;;;;;7.75;2.87;;;16.90;99.90;;;;;;7297671;32;20157;-58
2023/08/25 05:49:18;;;;;;;8.63;3.90;;;17.00;99.90;;;;;;7298591;32;20135;-57
2023/08/25 05:53:20;;;;;;;9.20;4.70;;;17.10;99.90;;;;;;7298003;32;20227;-58
2023/08/25 05:57:21;;;;;;;9.20;5.03;;;17.30;99.90;;;;;;7291994;32;20227;-57
2023/08/25 06:01:23;;;;;;;8.32;4.30;;;17.40;99.90;;;;;;7299335;32;20891;-57
2023/08/25 06:05:25;;;;;;;9.95;5.10;;;17.70;99.90;;;;;;7294164;32;20112;-57
2023/08/25 06:09:27;;;;;;;10.52;4.55;;;17.70;99.90;;;;;;7294943;32;20112;-57
2023/08/25 06:13:29;;;;;;;9.35;4.50;;;17.80;99.90;;;;;;7298580;32;20498;-58
2023/08/25 06:17:31;;;;;;;8.13;4.32;;;17.90;99.90;;;;;;7294325;32;20215;-57
2023/08/25 06:21:33;;;;;;;6.47;4.70;;;18.00;99.90;;;;;;7301208;32;20519;-57
2023/08/25 06:25:36;;;;;;;5.57;3.50;;;18.20;99.90;;;;;;7295463;32;20223;-58
2023/08/25 06:29:38;;;;;;;12.15;4.25;;;18.30;99.90;;;;;;7296860;32;20471;-57
2023/08/25 06:33:39;;;;;;;9.57;3.78;;;18.50;99.90;;;;;;7292344;32;20724;-57
2023/08/25 06:37:41;;;;;;;5.97;3.83;;;18.60;99.90;;;;;;7295986;32;20176;-58
2023/08/25 06:41:43;;;;;;;7.28;5.30;;;18.80;99.90;;;;;;7293674;32;20238;-58
2023/08/25 06:45:45;;;;;;;10.40;4.75;;;18.90;99.90;;;;;;7291875;32;20137;-56
2023/08/25 06:49:46;;;;;;;5.90;4.20;;;19.10;99.90;;;;;;7295028;32;20206;-57
2023/08/25 06:53:48;;;;;;;9.02;5.43;;;19.30;99.90;;;;;;7295673;32;20135;-57
2023/08/25 06:57:50;;;;;;;9.20;4.78;;;19.20;99.90;;;;;;7289257;32;20809;-56
2023/08/25 07:01:52;;;;;;;9.55;5.35;;;19.20;99.90;;;;;;7290179;32;20196;-58
2023/08/25 07:05:58;;;;;;;6.75;4.53;;;19.10;99.90;;;;;;7291759;32;20112;-57
2023/08/25 07:09:59;;;;;;;8.43;5.57;;;19.10;99.90;;;;;;7298061;32;20270;-58
2023/08/25 07:14:01;;;;;;;10.77;6.05;;;19.20;99.90;;;;;;7297289;32;20230;-61
2023/08/25 07:18:03;;;;;;;8.88;4.87;;;19.00;99.90;;;;;;7292215;32;20527;-57
2023/08/25 07:22:05;;;;;;;10.00;5.40;;;19.10;99.90;;;;;;7290737;32;20602;-58
2023/08/25 07:26:07;;;;;;;6.20;4.68;;;19.10;99.90;;;;;;7287324;32;20100;-56
2023/08/25 07:30:09;;;;;;;6.60;5.57;;;19.20;99.90;;;;;;7287766;32;20096;-55
2023/08/25 07:34:10;;;;;;;15.35;7.40;;;19.10;99.90;;;;;;7288845;32;20119;-57
2023/08/25 07:38:12;;;;;;;15.30;7.72;;;19.00;99.90;;;;;;7280871;32;20239;-57
2023/08/25 07:42:14;;;;;;;17.65;9.00;;;18.90;99.90;;;;;;7290959;32;20131;-57
2023/08/25 07:46:16;;;;;;;17.60;10.23;;;18.70;99.90;;;;;;7289283;32;20108;-58
2023/08/25 07:50:17;;;;;;;16.70;9.63;;;18.40;99.90;;;;;;7290399;32;20356;-57
2023/08/25 07:54:19;;;;;;;12.82;9.07;;;18.40;99.90;;;;;;7287188;32;20171;-57
2023/08/25 07:58:21;;;;;;;14.65;9.25;;;18.40;99.90;;;;;;7297666;32;20143;-57
2023/08/25 08:02:25;;;;;;;14.07;9.90;;;18.50;99.90;;;;;;7285609;32;20707;-57
2023/08/25 08:06:27;;;;;;;16.05;10.95;;;18.40;99.90;;;;;;7287098;32;20214;-57
2023/08/25 08:10:29;;;;;;;19.02;11.65;;;18.30;99.90;;;;;;7289130;32;20576;-57
2023/08/25 08:14:35;;;;;;;16.62;12.73;;;18.20;99.90;;;;;;7288485;32;20501;-57
2023/08/25 08:18:47;;;;;;;18.05;13.38;;;18.20;99.90;;;;;;7292375;32;20104;-57
2023/08/25 08:22:49;;;;;;;21.15;12.65;;;18.10;99.90;;;;;;7289224;32;20134;-58
2023/08/25 08:26:51;;;;;;;15.05;10.85;;;18.10;99.90;;;;;;7290444;32;20666;-58
2023/08/25 08:30:52;;;;;;;13.52;10.13;;;18.20;99.90;;;;;;7291599;32;20214;-58
2023/08/25 08:34:55;;;;;;;11.65;9.68;;;18.20;99.90;;;;;;7294252;32;20120;-56
2023/08/25 08:38:58;;;;;;;13.07;8.45;;;18.20;99.90;;;;;;7293472;32;20755;-56
2023/08/25 08:43:02;;;;;;;12.43;8.85;;;18.20;99.90;;;;;;7297911;32;20134;-56
2023/08/25 08:47:05;;;;;;;13.85;8.75;;;18.20;99.90;;;;;;7285559;32;20292;-56
2023/08/25 08:51:07;;;;;;;10.60;8.63;;;18.20;99.90;;;;;;7290675;32;20107;-56
2023/08/25 08:55:10;;;;;;;12.98;7.65;;;18.30;99.90;;;;;;7295676;32;20137;-56
2023/08/25 08:59:12;;;;;;;9.68;8.68;;;18.30;99.90;;;;;;7290618;32;20602;-57
2023/08/25 09:03:18;;;;;;;11.05;9.27;;;18.50;99.90;;;;;;7276972;32;20130;-56
2023/08/25 09:07:26;;;;;;;11.23;9.75;;;18.60;99.90;;;;;;7288562;32;20159;-56
2023/08/25 09:11:27;;;;;;;11.55;7.68;;;18.70;99.90;;;;;;7293692;32;20111;-56
2023/08/25 09:15:32;;;;;;;8.90;6.45;;;18.70;99.90;;;;;;7287288;32;20556;-55
2023/08/25 09:19:36;;;;;;;7.57;6.07;;;18.70;99.90;;;;;;7288373;32;20664;-56
2023/08/25 09:23:52;;;;;;;8.07;5.93;;;18.90;99.90;;;;;;7290849;32;20276;-56
2023/08/25 09:27:57;;;;;;;9.68;5.78;;;18.80;99.90;;;;;;7295135;32;20279;-57
2023/08/25 09:32:03;;;;;;;8.57;6.15;;;18.70;99.90;;;;;;7295304;32;20636;-58
2023/08/25 09:36:05;;;;;;;8.48;6.03;;;18.80;99.90;;;;;;7292778;32;20189;-57
2023/08/25 09:40:19;;;;;;;7.62;6.25;;;18.80;99.90;;;;;;7292889;32;20134;-57
2023/08/25 09:44:21;;;;;;;7.50;6.78;;;18.80;99.90;;;;;;7295400;32;20159;-57
2023/08/25 09:48:25;;;;;;;8.02;6.43;;;18.70;99.90;;;;;;7292209;32;20234;-57
2023/08/25 09:52:30;;;;;;;10.07;6.12;;;18.80;99.90;;;;;;7288468;32;20179;-57
2023/08/25 09:56:33;;;;;;;14.30;8.20;;;18.80;99.90;;;;;;7290528;32;20235;-57
2023/08/25 10:00:37;;;;;;;12.93;7.37;;;18.80;99.90;;;;;;7279477;32;20190;-57
2023/08/25 10:04:39;;;;;;;11.00;7.43;;;18.70;99.90;;;;;;7292068;32;20226;-57
2023/08/25 10:08:42;;;;;;;10.57;7.03;;;18.60;99.90;;;;;;7289522;32;20570;-57
2023/08/25 10:12:45;;;;;;;10.50;7.82;;;18.70;99.90;;;;;;7290894;32;20179;-56
2023/08/25 10:16:52;;;;;;;10.98;7.65;;;18.70;99.90;;;;;;7294447;32;20107;-56
2023/08/25 10:20:55;;;;;;;12.50;8.40;;;18.70;99.90;;;;;;7289487;32;20243;-55
2023/08/25 10:25:03;;;;;;;13.50;8.10;;;18.60;99.90;;;;;;7298988;32;20167;-56
2023/08/25 10:29:07;;;;;;;11.00;8.25;;;18.60;99.90;;;;;;7296802;32;20112;-57
2023/08/25 10:33:10;;;;;;;13.60;9.00;;;18.60;99.90;;;;;;7292998;32;20301;-57
2023/08/25 10:37:22;;;;;;;10.07;7.60;;;18.60;99.90;;;;;;7295833;32;20173;-57
2023/08/25 10:41:24;;;;;;;10.23;7.55;;;18.50;99.90;;;;;;7288910;32;20158;-57
2023/08/25 10:45:34;;;;;;;12.82;8.25;;;18.40;99.90;;;;;;7290632;32;20502;-56
2023/08/25 10:49:39;;;;;;;16.83;8.35;;;18.40;99.90;;;;;;7294089;32;20207;-56
2023/08/25 10:53:46;;;;;;;10.75;7.37;;;18.50;99.90;;;;;;7296704;32;20845;-56
2023/08/25 10:57:50;;;;;;;11.40;8.20;;;18.40;99.90;;;;;;7294678;32;20166;-56
2023/08/25 11:01:55;;;;;;;20.00;10.40;;;18.40;99.90;;;;;;7290659;32;22410;-59
2023/08/25 11:05:57;;;;;;;16.02;10.20;;;18.20;99.90;;;;;;7292066;32;20157;-54
2023/08/25 11:10:12;;;;;;;13.73;7.40;;;18.20;99.90;;;;;;7295392;32;20183;-54
2023/08/25 11:14:14;;;;;;;7.15;5.47;;;18.20;99.90;;;;;;7294607;32;20100;-55
2023/08/25 11:18:16;;;;;;;6.87;5.07;;;18.30;99.90;;;;;;7293356;32;20166;-55
2023/08/25 11:22:20;;;;;;;7.93;4.68;;;18.40;99.90;;;;;;7291051;32;20100;-55
2023/08/25 11:26:22;;;;;;;8.07;4.35;;;18.50;99.90;;;;;;7286973;32;20502;-55
2023/08/25 11:30:24;;;;;;;6.87;4.43;;;18.60;99.90;;;;;;7288720;32;20107;-55
2023/08/25 11:34:30;;;;;;;6.80;4.07;;;18.70;99.90;;;;;;7281560;32;20187;-55
2023/08/25 11:38:31;;;;;;;10.82;4.05;;;18.70;99.90;;;;;;7294108;32;20117;-55
2023/08/25 11:42:34;;;;;;;10.00;4.78;;;18.80;99.90;;;;;;7281203;32;20187;-55
2023/08/25 11:46:35;;;;;;;7.55;4.72;;;18.80;99.90;;;;;;7293693;32;20142;-56
2023/08/25 11:50:37;;;;;;;7.35;4.53;;;18.70;99.90;;;;;;7298165;32;20104;-55
2023/08/25 11:54:46;;;;;;;8.63;5.15;;;18.80;99.90;;;;;;7297334;32;20245;-57
2023/08/25 11:58:49;;;;;;;6.65;4.05;;;19.00;99.90;;;;;;7294005;32;20175;-57
2023/08/25 12:02:57;;;;;;;6.55;3.67;;;19.00;99.90;;;;;;7294872;32;20191;-57
2023/08/25 12:07:01;;;;;;;5.87;3.47;;;19.10;99.90;;;;;;7295898;32;20099;-57
2023/08/25 12:11:06;;;;;;;6.12;2.85;;;19.40;99.90;;;;;;7294743;32;20281;-57
2023/08/25 12:15:08;;;;;;;4.72;2.70;;;19.60;99.90;;;;;;7293693;32;20583;-57
2023/08/25 12:19:10;;;;;;;4.37;2.30;;;19.80;99.90;;;;;;7290839;32;20099;-57
2023/08/25 12:23:13;;;;;;;6.12;2.87;;;19.80;99.90;;;;;;7276367;32;20134;-56
2023/08/25 12:27:17;;;;;;;7.20;2.75;;;19.90;99.90;;;;;;7284879;32;20104;-57
2023/08/25 12:31:19;;;;;;;3.53;2.50;;;20.10;99.90;;;;;;7295330;32;20123;-57
2023/08/25 12:35:23;;;;;;;3.95;2.95;;;20.30;99.90;;;;;;7290560;32;20254;-57
2023/08/25 12:39:24;;;;;;;3.35;2.55;;;20.20;99.90;;;;;;7290790;32;20568;-57
2023/08/25 12:43:27;;;;;;;5.85;2.70;;;20.30;99.90;;;;;;7299818;32;20138;-57
2023/08/25 12:47:29;;;;;;;6.03;3.03;;;20.20;99.90;;;;;;7293438;32;20540;-57
2023/08/25 12:51:31;;;;;;;4.30;3.40;;;20.10;99.90;;;;;;7295685;32;20152;-57
2023/08/25 12:55:38;;;;;;;5.40;3.40;;;20.10;99.90;;;;;;7293710;32;20681;-57
2023/08/25 12:59:41;;;;;;;7.35;3.42;;;20.00;99.90;;;;;;7297992;32;20240;-57
2023/08/25 13:03:43;;;;;;;8.45;3.85;;;20.00;99.90;;;;;;7293472;32;20260;-57
2023/08/25 13:07:45;;;;;;;9.30;3.67;;;20.00;99.90;;;;;;7291936;32;22083;-58
2023/08/25 13:11:47;;;;;;;5.15;3.65;;;20.00;99.90;;;;;;7293762;32;20204;-59
2023/08/25 13:15:49;;;;;;;5.35;3.95;;;20.10;99.90;;;;;;7296217;32;20526;-58
2023/08/25 13:19:51;;;;;;;7.68;4.28;;;20.50;99.90;;;;;;7294917;32;20214;-57
2023/08/25 13:23:52;;;;;;;5.55;4.40;;;21.00;99.90;;;;;;7291798;32;20103;-57
2023/08/25 13:28:10;;;;;;;;;;;21.20;99.90;;;;;;7293880;32;20112;-57
2023/08/25 13:32:12;;;;;;;4.97;3.55;;;21.40;99.90;;;;;;7294899;32;20007;-56
2023/08/25 13:36:15;;;;;;;4.37;3.12;;;21.50;99.90;;;;;;7283089;32;20247;-56
2023/08/25 13:40:17;;;;;;;5.30;3.08;;;21.50;99.90;;;;;;7288321;32;20206;-57
2023/08/25 13:44:18;;;;;;;4.93;2.97;;;21.40;99.90;;;;;;7294578;32;20118;-56
2023/08/25 13:48:20;;;;;;;4.20;2.33;;;21.50;99.90;;;;;;7290038;32;20252;-58
2023/08/25 13:52:22;;;;;;;5.28;2.60;;;21.40;99.90;;;;;;7293581;32;20097;-57
2023/08/25 13:56:24;;;;;;;4.70;2.65;;;21.30;99.90;;;;;;7299252;32;20118;-57
2023/08/25 14:00:26;;;;;;;3.83;2.22;;;21.40;99.90;;;;;;7299551;32;20104;-57
2023/08/25 14:04:28;;;;;;;6.45;2.45;;;21.50;99.90;;;;;;7306325;32;20179;-57
2023/08/25 14:08:30;;;;;;;4.05;2.70;;;21.80;99.90;;;;;;7302365;32;20091;-57
2023/08/25 14:12:32;;;;;;;6.30;2.80;;;21.90;99.90;;;;;;7303090;32;20169;-56
2023/08/25 14:16:34;;;;;;;3.37;2.60;;;22.10;99.90;;;;;;7304929;32;20222;-58
2023/08/25 14:20:36;;;;;;;5.68;2.53;;;22.40;99.90;;;;;;7300752;32;20134;-58
2023/08/25 14:24:38;;;;;;;3.42;2.50;;;22.70;99.90;;;;;;7292607;32;20119;-57
2023/08/25 14:28:39;;;;;;;5.93;2.42;;;22.70;99.90;;;;;;7291079;32;20215;-57
2023/08/25 14:32:41;;;;;;;3.83;2.20;;;22.80;99.90;;;;;;7295858;32;20096;-56
2023/08/25 14:36:43;;;;;;;3.92;2.47;;;22.80;99.90;;;;;;7299818;32;20125;-57
2023/08/25 14:40:48;;;;;;;4.93;3.05;;;22.80;99.90;;;;;;7297283;32;20406;-57
2023/08/25 14:44:50;;;;;;;5.25;2.50;;;22.70;99.90;;;;;;7295390;32;20196;-57
2023/08/25 14:48:51;;;;;;;4.55;2.65;;;22.80;99.90;;;;;;7298308;32;20769;-57
2023/08/25 14:52:53;;;;;;;5.82;2.58;;;22.70;99.90;;;;;;7295518;32;20220;-57
2023/08/25 14:56:56;;;;;;;5.45;3.70;;;22.70;99.90;;;;;;7295427;32;20108;-57
2023/08/25 15:00:58;;;;;;;7.43;3.17;;;22.50;99.90;;;;;;7295752;32;20198;-57
2023/08/25 15:05:02;;;;;;;6.50;3.42;;;22.50;99.90;;;;;;7293371;32;20475;-58
2023/08/25 15:09:04;;;;;;;4.55;3.28;;;22.60;99.90;;;;;;7297755;32;20190;-57
2023/08/25 15:13:07;;;;;;;5.15;3.20;;;22.60;99.90;;;;;;7300058;32;20104;-58
2023/08/25 15:17:10;;;;;;;5.30;3.72;;;22.50;99.90;;;;;;7296437;32;20188;-57
2023/08/25 15:21:12;;;;;;;5.30;3.90;;;22.50;99.90;;;;;;7293705;32;20247;-57
2023/08/25 15:25:14;;;;;;;4.70;3.65;;;22.50;99.90;;;;;;7288241;32;20553;-57
2023/08/25 15:29:15;;;;;;;7.35;3.95;;;22.50;99.90;;;;;;7294536;32;20198;-57
2023/08/25 15:33:22;;;;;;;9.23;4.20;;;22.50;99.90;;;;;;7290657;32;20101;-58
2023/08/25 15:37:23;;;;;;;6.57;4.55;;;22.60;99.90;;;;;;7292430;32;20112;-57
2023/08/25 15:41:25;;;;;;;5.55;4.78;;;22.50;99.90;;;;;;7291924;32;20148;-57
2023/08/25 15:45:27;;;;;;;8.07;4.50;;;22.50;99.90;;;;;;7293081;32;20331;-58
2023/08/25 15:49:28;;;;;;;6.62;4.50;;;22.60;99.90;;;;;;7294645;32;20103;-57
2023/08/25 15:53:30;;;;;;;4.78;4.25;;;22.50;99.90;;;;;;7291747;32;20211;-58
2023/08/25 15:57:32;;;;;;;7.93;6.20;;;22.40;99.90;;;;;;7297186;32;20124;-57
2023/08/25 16:01:44;;;;;;;7.68;5.20;;;22.30;99.90;;;;;;7301430;32;20191;-57
2023/08/25 16:05:54;;;;;;;6.12;4.87;;;22.10;99.90;;;;;;7302959;32;20726;-57
2023/08/25 16:09:56;;;;;;;7.18;5.68;;;21.90;99.90;;;;;;7293908;32;20108;-57
2023/08/25 16:13:57;;;;;;;8.27;6.12;;;21.90;99.90;;;;;;7302799;32;20130;-56
2023/08/25 16:17:59;;;;;;;9.32;6.60;;;21.90;99.90;;;;;;7301481;32;20111;-57
2023/08/25 16:22:01;;;;;;;6.85;6.05;;;21.90;99.90;;;;;;7303024;32;20214;-57
2023/08/25 16:26:04;;;;;;;8.02;6.87;;;22.00;99.90;;;;;;7287137;32;20116;-57
2023/08/25 16:30:06;;;;;;;8.90;7.32;;;22.00;99.90;;;;;;7301542;32;20127;-57
2023/08/25 16:34:08;;;;;;;9.95;7.37;;;21.90;99.90;;;;;;7290072;32;20207;-57
2023/08/25 16:38:09;;;;;;;9.43;8.02;;;21.90;99.90;;;;;;7290060;32;20305;-58
2023/08/25 16:42:11;;;;;;;9.43;7.40;;;21.80;99.90;;;;;;7284989;32;20447;-57
2023/08/25 16:46:13;;;;;;;8.95;7.53;;;21.80;99.90;;;;;;7290686;32;20138;-58
2023/08/25 16:50:15;;;;;;;10.25;7.90;;;21.80;99.90;;;;;;7291848;32;20111;-57
2023/08/25 16:54:17;;;;;;;9.35;8.27;;;21.70;99.90;;;;;;7296592;32;20258;-57
2023/08/25 16:58:18;;;;;;;9.27;7.60;;;21.60;99.90;;;;;;7294927;32;20176;-57
2023/08/25 17:02:20;;;;;;;11.32;8.68;;;21.50;99.90;;;;;;7293737;32;20130;-57
2023/08/25 17:06:22;;;;;;;9.00;8.00;;;21.60;99.90;;;;;;7292797;32;20122;-57
2023/08/25 17:10:27;;;;;;;10.02;6.97;;;21.60;99.90;;;;;;7295784;32;20665;-57
2023/08/25 17:14:28;;;;;;;8.32;7.07;;;21.50;99.90;;;;;;7298304;32;20126;-58
2023/08/25 17:18:30;;;;;;;7.80;7.00;;;21.40;99.90;;;;;;7295270;32;20112;-58
2023/08/25 17:22:32;;;;;;;7.20;6.30;;;21.40;99.90;;;;;;7285837;32;20955;-57
2023/08/25 17:26:34;;;;;;;7.85;6.40;;;21.30;99.90;;;;;;7294091;32;20103;-57
2023/08/25 17:30:35;;;;;;;7.68;6.65;;;21.30;99.90;;;;;;7301748;32;20620;-59
2023/08/25 17:34:37;;;;;;;6.20;5.65;;;21.30;99.90;;;;;;7304412;32;20084;-57
2023/08/25 17:38:40;;;;;;;6.68;6.07;;;21.20;99.90;;;;;;7299175;32;20150;-58
2023/08/25 17:42:42;;;;;;;8.45;6.22;;;21.30;99.90;;;;;;7307112;32;20118;-58
2023/08/25 17:46:43;;;;;;;7.45;5.75;;;21.20;99.90;;;;;;7297025;32;20222;-58
2023/08/25 17:50:45;;;;;;;6.03;5.40;;;21.10;99.90;;;;;;7298200;32;20175;-59
2023/08/25 17:54:47;;;;;;;13.60;6.32;;;21.00;99.90;;;;;;7302272;32;20329;-57
2023/08/25 17:58:48;;;;;;;7.15;5.55;;;21.00;99.90;;;;;;7293936;32;20179;-57
2023/08/25 18:02:50;;;;;;;8.23;5.82;;;21.00;99.90;;;;;;7296874;32;20170;-58
2023/08/25 18:06:52;;;;;;;5.80;4.50;;;20.90;99.90;;;;;;7299046;32;20118;-57
2023/08/25 18:10:55;;;;;;;6.47;3.97;;;21.00;99.90;;;;;;7301449;32;20198;-58
2023/08/25 18:14:57;;;;;;;6.37;3.65;;;20.90;99.90;;;;;;7302096;32;20187;-57
2023/08/25 18:18:59;;;;;;;4.12;3.40;;;20.90;99.90;;;;;;7297898;32;20128;-57
2023/08/25 18:23:01;;;;;;;5.72;4.28;;;20.90;99.90;;;;;;7300432;32;20115;-57
2023/08/25 18:27:02;;;;;;;5.57;3.90;;;20.80;99.90;;;;;;7302023;32;20104;-57
2023/08/25 18:31:06;;;;;;;7.25;4.07;;;20.80;99.90;;;;;;7300991;32;20225;-58
2023/08/25 18:35:08;;;;;;;6.78;4.25;;;20.70;99.90;;;;;;7303672;32;20105;-57
2023/08/25 18:39:10;;;;;;;8.80;5.57;;;20.70;99.90;;;;;;7302823;32;20140;-58
2023/08/25 18:43:12;;;;;;;9.07;6.12;;;20.60;99.90;;;;;;7299444;32;20134;-57
2023/08/25 18:47:13;;;;;;;7.80;5.87;;;20.60;99.90;;;;;;7301677;32;20795;-57
2023/08/25 18:51:16;;;;;;;7.95;5.50;;;20.50;99.90;;;;;;7299342;32;20108;-58
2023/08/25 18:55:18;;;;;;;8.05;6.00;;;20.40;99.90;;;;;;7300737;32;20119;-56
2023/08/25 18:59:20;;;;;;;8.32;6.28;;;20.40;99.90;;;;;;7295529;32;20174;-57
2023/08/25 19:03:22;;;;;;;6.90;5.43;;;20.30;99.90;;;;;;7301222;32;20181;-56
2023/08/25 19:07:24;;;;;;;7.12;5.50;;;20.30;99.90;;;;;;7296272;32;20123;-56
2023/08/25 19:11:26;;;;;;;6.35;5.22;;;20.30;99.90;;;;;;7297833;32;20249;-56
2023/08/25 19:15:28;;;;;;;9.63;5.82;;;20.20;99.90;;;;;;7299069;32;20119;-57
2023/08/25 19:19:29;;;;;;;8.43;6.07;;;20.20;99.90;;;;;;7299800;32;20521;-58
2023/08/25 19:23:32;;;;;;;8.55;5.78;;;20.10;99.90;;;;;;7295257;32;20982;-57
2023/08/25 19:27:35;;;;;;;9.45;6.70;;;19.90;99.90;;;;;;7297783;32;20649;-56
2023/08/25 19:31:38;;;;;;;8.60;6.22;;;19.80;99.90;;;;;;7278968;32;20115;-56
2023/08/25 19:35:40;;;;;;;8.15;5.85;;;19.80;99.90;;;;;;7297040;32;20524;-56
2023/08/25 19:39:42;;;;;;;9.98;6.15;;;19.70;99.90;;;;;;7286548;32;20116;-56
2023/08/25 19:43:44;;;;;;;7.45;6.03;;;19.80;99.90;;;;;;7295554;32;20515;-56
2023/08/25 19:47:45;;;;;;;9.05;6.30;;;19.70;99.90;;;;;;7290093;32;20150;-56
2023/08/25 19:51:47;;;;;;;11.90;7.18;;;19.60;99.90;;;;;;7287418;32;20096;-56
2023/08/25 19:55:49;;;;;;;11.05;7.68;;;19.60;99.90;;;;;;7292974;32;20113;-57
2023/08/25 19:59:51;;;;;;;10.35;7.62;;;19.50;99.90;;;;;;7293275;32;20420;-56
2023/08/25 20:03:53;;;;;;;12.00;7.65;;;19.50;99.90;;;;;;7286385;32;20247;-56
2023/08/25 20:07:55;;;;;;;11.63;8.50;;;19.40;99.90;;;;;;7293038;32;20273;-56
2023/08/25 20:11:56;;;;;;;11.98;8.85;;;19.20;99.90;;;;;;7290336;32;20183;-56
2023/08/25 20:16:00;;;;;;;13.45;9.43;;;19.10;99.90;;;;;;7293251;32;20122;-56
2023/08/25 20:20:03;;;;;;;13.70;8.60;;;19.10;99.90;;;;;;7293734;32;20210;-56
2023/08/25 20:24:06;;;;;;;15.23;10.32;;;19.10;99.90;;;;;;7293859;32;20537;-57
2023/08/25 20:28:10;;;;;;;15.88;9.57;;;19.00;99.90;;;;;;7291477;32;20112;-56
2023/08/25 20:32:11;;;;;;;15.55;10.10;;;19.00;99.90;;;;;;7296830;32;20510;-56
2023/08/25 20:36:13;;;;;;;17.27;10.38;;;19.00;99.90;;;;;;7299395;32;20178;-55
2023/08/25 20:40:19;;;;;;;19.37;10.68;;;19.00;99.90;;;;;;7285491;32;20279;-55
2023/08/25 20:44:21;;;;;;;15.65;11.05;;;18.90;99.90;;;;;;7296959;32;20199;-56
2023/08/25 20:48:22;;;;;;;15.90;10.82;;;18.90;99.90;;;;;;7296223;32;20130;-55
2023/08/25 20:52:24;;;;;;;19.37;13.05;;;18.90;99.90;;;;;;7295575;32;20096;-56
2023/08/25 20:56:29;;;;;;;16.87;11.90;;;19.00;99.90;;;;;;7293363;32;20129;-55